Time;durP1;ratioP1;P1;durP2;ratioP2;P2;SDS_P1;SDS_P2;PMS_P1;PMS_P2;Temp;Humidity;BMP_temperature;BMP_pressure;BME280_temperature;BME280_humidity;BME280_pressure;Samples;Min_cycle;Max_cycle;Signal;HPM_P1;HPM_P2
2022/10/19 00:01:49;;;;;;;13.35;5.97;;;12.40;99.90;;;;;;5062904;28;20028;-72
2022/10/19 00:04:14;;;;;;;14.95;5.75;;;12.30;99.90;;;;;;5062801;28;20056;-71
2022/10/19 00:06:40;;;;;;;11.95;5.43;;;12.30;99.90;;;;;;5064210;28;20020;-72
2022/10/19 00:09:09;;;;;;;19.50;5.25;;;12.30;99.90;;;;;;5063747;28;20079;-73
2022/10/19 00:11:37;;;;;;;14.38;5.45;;;12.20;99.90;;;;;;5065780;28;20078;-71
2022/10/19 00:14:04;;;;;;;13.40;5.55;;;12.20;99.90;;;;;;5060810;28;20037;-71
2022/10/19 00:16:33;;;;;;;10.80;5.85;;;12.20;99.90;;;;;;5061725;28;20040;-71
2022/10/19 00:19:01;;;;;;;12.90;5.75;;;12.20;99.90;;;;;;5063880;28;20040;-71
2022/10/19 00:21:27;;;;;;;11.05;5.97;;;12.10;99.90;;;;;;5065548;28;20033;-71
2022/10/19 00:23:53;;;;;;;15.45;5.68;;;12.10;99.90;;;;;;5062523;28;20131;-71
2022/10/19 00:26:19;;;;;;;10.93;5.75;;;12.10;99.90;;;;;;5067498;28;20583;-71
2022/10/19 00:28:45;;;;;;;15.85;6.28;;;12.00;99.90;;;;;;5066783;28;20024;-70
2022/10/19 00:31:15;;;;;;;17.95;6.80;;;12.10;99.90;;;;;;5062992;28;20029;-70
2022/10/19 00:33:43;;;;;;;11.27;5.88;;;12.00;99.90;;;;;;5082002;28;20033;-71
2022/10/19 00:36:30;;;;;;;12.10;6.78;;;12.10;99.90;;;;;;5079035;28;20484;-71
2022/10/19 00:38:56;;;;;;;15.02;7.05;;;12.00;99.90;;;;;;5063381;28;20024;-70
2022/10/19 00:41:26;;;;;;;17.55;7.13;;;12.10;99.90;;;;;;5065244;28;20027;-71
2022/10/19 00:44:01;;;;;;;17.67;6.63;;;12.00;99.90;;;;;;5061102;28;20048;-71
2022/10/19 00:46:29;;;;;;;14.50;6.68;;;11.90;99.90;;;;;;5063934;28;20048;-71
2022/10/19 00:48:59;;;;;;;16.95;6.60;;;11.90;99.90;;;;;;5062543;28;20070;-70
2022/10/19 00:51:27;;;;;;;17.70;7.07;;;11.90;99.90;;;;;;5065424;28;20182;-71
2022/10/19 00:53:54;;;;;;;12.52;6.18;;;11.90;99.90;;;;;;5065462;28;20029;-71
2022/10/19 00:56:19;;;;;;;17.55;7.03;;;11.90;99.90;;;;;;5055980;28;20107;-71
2022/10/19 00:58:45;;;;;;;13.68;6.57;;;11.90;99.90;;;;;;5063304;28;20108;-72
2022/10/19 01:01:16;;;;;;;15.85;6.78;;;11.90;99.90;;;;;;5061953;28;20641;-71
2022/10/19 01:03:43;;;;;;;17.52;6.30;;;11.90;99.90;;;;;;5065692;28;20024;-73
2022/10/19 01:06:10;;;;;;;16.50;6.15;;;11.90;99.90;;;;;;5060526;28;20033;-70
2022/10/19 01:08:36;;;;;;;18.52;7.00;;;11.90;99.90;;;;;;5063352;28;20028;-72
2022/10/19 01:11:39;;;;;;;16.33;6.82;;;11.90;99.90;;;;;;5060671;28;20432;-71
2022/10/19 01:14:39;;;;;;;13.88;6.30;;;11.80;99.90;;;;;;5059773;28;20539;-71
2022/10/19 01:17:26;;;;;;;12.40;5.20;;;11.80;99.90;;;;;;5062627;28;20028;-72
2022/10/19 01:20:13;;;;;;;13.90;5.00;;;11.80;99.90;;;;;;5073122;28;20094;-72
2022/10/19 01:22:39;;;;;;;12.35;5.15;;;11.80;99.90;;;;;;5060263;28;20059;-72
2022/10/19 01:25:48;;;;;;;15.20;6.20;;;11.70;99.90;;;;;;5069428;28;20482;-71
2022/10/19 01:28:43;;;;;;;19.85;6.22;;;11.70;99.90;;;;;;5061258;28;20035;-73
2022/10/19 01:31:20;;;;;;;15.52;6.45;;;11.70;99.90;;;;;;5056825;28;20031;-73
2022/10/19 01:34:09;;;;;;;15.45;6.28;;;11.70;99.90;;;;;;5055587;28;20485;-73
2022/10/19 01:36:35;;;;;;;24.23;7.28;;;11.60;99.90;;;;;;5064664;28;20519;-73
2022/10/19 01:39:22;;;;;;;10.88;6.20;;;11.60;99.90;;;;;;5058766;28;20025;-73
2022/10/19 01:42:19;;;;;;;17.92;6.30;;;11.60;99.90;;;;;;5058949;28;20032;-73
2022/10/19 01:45:10;;;;;;;16.73;5.72;;;11.60;99.90;;;;;;5060304;28;20024;-72
2022/10/19 01:47:44;;;;;;;11.75;5.57;;;11.60;99.90;;;;;;5066401;28;20036;-72
2022/10/19 01:50:30;;;;;;;11.55;4.82;;;11.60;99.90;;;;;;5061751;28;20091;-72
2022/10/19 01:52:57;;;;;;;11.38;5.68;;;11.50;99.90;;;;;;5061378;28;20037;-73
2022/10/19 01:55:25;;;;;;;14.63;5.93;;;11.50;99.90;;;;;;5063629;28;20094;-73
2022/10/19 01:58:05;;;;;;;18.88;6.68;;;11.50;99.90;;;;;;5057537;28;20028;-73
2022/10/19 02:00:33;;;;;;;12.35;5.95;;;11.40;99.90;;;;;;5059884;28;20027;-73
2022/10/19 02:03:00;;;;;;;11.70;5.53;;;11.50;99.90;;;;;;5064510;28;20062;-73
2022/10/19 02:05:30;;;;;;;11.05;6.10;;;11.40;99.90;;;;;;5059639;28;20023;-73
2022/10/19 02:08:12;;;;;;;10.40;4.93;;;11.40;99.90;;;;;;5062591;28;20024;-72
2022/10/19 02:10:42;;;;;;;16.37;5.83;;;11.40;99.90;;;;;;5066774;28;20024;-73
2022/10/19 02:13:10;;;;;;;13.93;6.30;;;11.40;99.90;;;;;;5058288;28;20287;-73
2022/10/19 02:15:38;;;;;;;11.13;6.05;;;11.40;99.90;;;;;;5060611;28;20478;-73
2022/10/19 02:18:06;;;;;;;15.68;6.40;;;11.40;99.90;;;;;;5063685;28;20028;-73
2022/10/19 02:20:33;;;;;;;12.45;5.80;;;11.40;99.90;;;;;;5062308;28;20434;-72
2022/10/19 02:22:59;;;;;;;15.02;7.10;;;11.40;99.90;;;;;;5064608;28;20094;-73
2022/10/19 02:25:25;;;;;;;14.15;7.28;;;11.40;99.90;;;;;;5061116;28;20109;-72
2022/10/19 02:27:50;;;;;;;22.42;8.88;;;11.30;99.90;;;;;;5061587;28;20029;-72
2022/10/19 02:30:20;;;;;;;17.27;7.35;;;11.30;99.90;;;;;;5059427;28;20032;-72
2022/10/19 02:32:46;;;;;;;11.45;7.13;;;11.30;99.90;;;;;;5062705;28;20037;-72
2022/10/19 02:35:13;;;;;;;13.15;7.07;;;11.30;99.90;;;;;;5064054;28;20078;-72
2022/10/19 02:37:39;;;;;;;16.55;7.35;;;11.30;99.90;;;;;;5060876;28;20052;-72
2022/10/19 02:40:05;;;;;;;22.20;7.35;;;11.30;99.90;;;;;;5063607;28;20013;-73
2022/10/19 02:42:49;;;;;;;21.02;7.68;;;11.30;99.90;;;;;;5060310;28;20135;-72
2022/10/19 02:45:29;;;;;;;19.05;7.43;;;11.30;99.90;;;;;;5063754;28;20476;-72
2022/10/19 02:48:07;;;;;;;16.33;7.72;;;11.30;99.90;;;;;;5061964;28;20037;-72
2022/10/19 02:50:33;;;;;;;17.20;7.68;;;11.20;99.90;;;;;;5064564;28;20040;-72
2022/10/19 02:52:58;;;;;;;17.33;7.10;;;11.20;99.90;;;;;;5062682;28;20036;-73
2022/10/19 02:55:24;;;;;;;15.43;7.30;;;11.20;99.90;;;;;;5062200;28;20107;-72
2022/10/19 02:57:50;;;;;;;16.65;7.75;;;11.20;99.90;;;;;;5067369;28;20082;-73
2022/10/19 03:00:16;;;;;;;21.48;7.90;;;11.20;99.90;;;;;;5058436;28;20024;-72
2022/10/19 03:02:42;;;;;;;15.05;7.05;;;11.20;99.90;;;;;;5063890;28;20112;-72
2022/10/19 03:05:09;;;;;;;19.55;7.60;;;11.20;99.90;;;;;;5057759;28;20048;-72
2022/10/19 03:07:35;;;;;;;16.60;8.00;;;11.10;99.90;;;;;;5060532;28;20033;-72
2022/10/19 03:10:01;;;;;;;15.57;8.00;;;11.20;99.90;;;;;;5064100;28;20075;-72
2022/10/19 03:12:26;;;;;;;21.02;9.20;;;11.10;99.90;;;;;;5061149;28;20079;-72
2022/10/19 03:14:52;;;;;;;17.48;8.02;;;11.10;99.90;;;;;;5059806;28;20040;-72
2022/10/19 03:17:18;;;;;;;19.42;8.18;;;11.10;99.90;;;;;;5064755;28;20037;-72
2022/10/19 03:19:43;;;;;;;14.27;8.23;;;11.10;99.90;;;;;;5057150;28;20060;-72
2022/10/19 03:22:09;;;;;;;13.25;8.82;;;11.10;99.90;;;;;;5059579;28;20028;-72
2022/10/19 03:24:35;;;;;;;15.73;8.25;;;11.10;99.90;;;;;;5059988;28;20040;-72
2022/10/19 03:27:00;;;;;;;19.27;9.43;;;11.00;99.90;;;;;;5062254;28;20068;-72
2022/10/19 03:29:26;;;;;;;16.08;8.75;;;11.00;99.90;;;;;;5059272;28;20484;-72
2022/10/19 03:31:51;;;;;;;12.80;8.23;;;11.10;99.90;;;;;;5052622;28;20086;-72
2022/10/19 03:34:17;;;;;;;18.15;9.50;;;11.00;99.90;;;;;;5065895;28;20036;-72
2022/10/19 03:36:43;;;;;;;16.73;9.35;;;11.00;99.90;;;;;;5053795;28;20032;-72
2022/10/19 03:39:13;;;;;;;21.38;9.95;;;11.00;99.90;;;;;;5055571;28;20028;-72
2022/10/19 03:41:39;;;;;;;25.88;10.65;;;11.00;99.90;;;;;;5061529;28;20102;-71
2022/10/19 03:44:06;;;;;;;21.55;9.90;;;11.00;99.90;;;;;;5058468;28;20057;-72
2022/10/19 03:46:32;;;;;;;15.32;8.70;;;10.90;99.90;;;;;;5060907;28;20099;-72
2022/10/19 03:48:58;;;;;;;23.20;10.85;;;10.90;99.90;;;;;;5059957;28;20029;-72
2022/10/19 03:51:27;;;;;;;26.63;9.68;;;10.90;99.90;;;;;;5067750;28;20492;-70
2022/10/19 03:53:54;;;;;;;26.67;9.35;;;10.90;99.90;;;;;;5061848;28;20037;-72
2022/10/19 03:56:22;;;;;;;20.33;9.25;;;10.90;99.90;;;;;;5057636;28;20032;-71
2022/10/19 03:58:49;;;;;;;14.23;8.00;;;10.90;99.90;;;;;;5033193;28;20048;-72
2022/10/19 04:01:18;;;;;;;14.02;8.02;;;10.90;99.90;;;;;;5056365;28;20027;-72
2022/10/19 04:03:44;;;;;;;17.30;7.70;;;10.90;99.90;;;;;;5053882;28;20055;-71
2022/10/19 04:06:13;;;;;;;15.52;7.90;;;10.90;99.90;;;;;;5056628;28;20462;-72
2022/10/19 04:08:39;;;;;;;12.00;8.15;;;10.90;99.90;;;;;;5054921;28;20025;-72
2022/10/19 04:11:10;;;;;;;13.73;7.93;;;10.80;99.90;;;;;;5053907;28;20075;-72
2022/10/19 04:13:36;;;;;;;10.50;6.53;;;10.80;99.90;;;;;;5059224;28;20500;-72
2022/10/19 04:16:02;;;;;;;13.00;6.65;;;10.80;99.90;;;;;;5057585;28;20037;-72
2022/10/19 04:18:28;;;;;;;18.10;8.95;;;10.80;99.90;;;;;;5056442;28;20036;-72
2022/10/19 04:21:02;;;;;;;13.13;8.23;;;10.80;99.90;;;;;;5057941;28;20028;-72
2022/10/19 04:23:30;;;;;;;17.00;9.63;;;10.80;99.90;;;;;;5064349;28;20792;-72
2022/10/19 04:26:04;;;;;;;20.50;10.10;;;10.70;99.90;;;;;;5060168;28;20025;-72
2022/10/19 04:28:29;;;;;;;25.58;9.93;;;10.70;99.90;;;;;;5059535;28;20056;-71
2022/10/19 04:30:55;;;;;;;16.50;9.43;;;10.70;99.90;;;;;;5059736;28;20429;-72
2022/10/19 04:33:21;;;;;;;17.90;9.65;;;10.70;99.90;;;;;;5061147;28;20044;-71
2022/10/19 04:35:46;;;;;;;16.60;9.80;;;10.60;99.90;;;;;;5060513;28;20028;-71
2022/10/19 04:38:12;;;;;;;17.25;10.35;;;10.60;99.90;;;;;;5060750;28;20028;-70
2022/10/19 04:40:38;;;;;;;19.42;9.63;;;10.60;99.90;;;;;;5059420;28;20025;-72
2022/10/19 04:43:04;;;;;;;24.33;11.15;;;10.60;99.90;;;;;;5056976;28;20032;-72
2022/10/19 04:45:31;;;;;;;21.15;11.43;;;10.60;99.90;;;;;;5056989;28;20028;-71
2022/10/19 04:47:56;;;;;;;18.80;10.50;;;10.70;99.90;;;;;;5058317;28;20088;-71
2022/10/19 04:50:23;;;;;;;20.08;11.45;;;10.60;99.90;;;;;;5063426;28;20024;-72
2022/10/19 04:52:49;;;;;;;21.60;12.07;;;10.70;99.90;;;;;;5057565;28;20041;-72
2022/10/19 04:55:14;;;;;;;22.05;12.63;;;10.70;99.90;;;;;;5062663;28;20552;-71
2022/10/19 04:57:40;;;;;;;20.92;11.82;;;10.60;99.90;;;;;;5052639;28;20054;-71
2022/10/19 05:00:06;;;;;;;20.13;12.00;;;10.70;99.90;;;;;;5061735;28;20048;-72
2022/10/19 05:02:32;;;;;;;26.85;12.73;;;10.70;99.90;;;;;;5060585;28;20032;-72
2022/10/19 05:04:57;;;;;;;20.40;11.55;;;10.70;99.90;;;;;;5058208;28;20017;-72
2022/10/19 05:07:23;;;;;;;24.48;13.60;;;10.70;99.90;;;;;;5060287;28;20033;-72
2022/10/19 05:09:48;;;;;;;21.40;13.10;;;10.60;99.90;;;;;;5060622;28;20032;-71
2022/10/19 05:12:14;;;;;;;21.77;12.80;;;10.70;99.90;;;;;;5060560;28;20032;-71
2022/10/19 05:14:40;;;;;;;23.42;12.80;;;10.60;99.90;;;;;;5057385;28;20040;-70
2022/10/19 05:17:05;;;;;;;20.92;11.65;;;10.60;99.90;;;;;;5052251;28;20040;-70
2022/10/19 05:19:31;;;;;;;26.00;13.23;;;10.60;99.90;;;;;;5052954;28;20032;-71
2022/10/19 05:21:56;;;;;;;21.02;12.52;;;10.70;99.90;;;;;;5050031;28;20477;-71
2022/10/19 05:24:22;;;;;;;25.98;13.02;;;10.70;99.90;;;;;;5052630;28;20025;-72
2022/10/19 05:26:48;;;;;;;25.08;12.80;;;10.60;99.90;;;;;;5058014;28;20145;-72
2022/10/19 05:29:13;;;;;;;23.80;12.75;;;10.60;99.90;;;;;;5067666;28;20073;-72
2022/10/19 05:31:39;;;;;;;21.08;11.88;;;10.60;99.90;;;;;;5063840;28;20041;-72
2022/10/19 05:34:05;;;;;;;25.20;12.85;;;10.60;99.90;;;;;;5066612;28;20035;-72
2022/10/19 05:36:33;;;;;;;26.30;12.25;;;10.50;99.90;;;;;;5061113;28;20083;-72
2022/10/19 05:39:05;;;;;;;21.38;11.25;;;10.60;99.90;;;;;;5068614;28;20108;-71
2022/10/19 05:41:31;;;;;;;26.90;13.60;;;10.50;99.90;;;;;;5066356;28;20032;-72
2022/10/19 05:43:58;;;;;;;26.85;12.52;;;10.50;99.90;;;;;;5071174;28;20039;-72
2022/10/19 05:46:26;;;;;;;25.33;12.50;;;10.50;99.90;;;;;;5067431;28;20107;-72
2022/10/19 05:48:53;;;;;;;25.42;12.45;;;10.40;99.90;;;;;;5062176;28;20029;-72
2022/10/19 05:51:20;;;;;;;24.92;12.65;;;10.50;99.90;;;;;;5067248;28;20021;-71
2022/10/19 05:53:46;;;;;;;27.65;13.70;;;10.50;99.90;;;;;;5063988;28;20493;-72
2022/10/19 05:56:20;;;;;;;24.85;13.13;;;10.50;99.90;;;;;;5065337;28;20071;-71
2022/10/19 05:58:47;;;;;;;27.92;12.57;;;10.50;99.90;;;;;;5056990;28;20040;-71
2022/10/19 06:01:13;;;;;;;26.27;13.68;;;10.50;99.90;;;;;;5056940;28;20028;-72
2022/10/19 06:03:40;;;;;;;20.70;12.43;;;10.50;99.90;;;;;;5060674;28;20111;-71
2022/10/19 06:06:07;;;;;;;29.85;13.20;;;10.50;99.90;;;;;;5062350;28;20074;-72
2022/10/19 06:08:33;;;;;;;30.52;12.27;;;10.40;99.90;;;;;;5059307;28;20040;-72
2022/10/19 06:11:11;;;;;;;22.98;12.18;;;10.50;99.90;;;;;;5061691;28;20062;-71
2022/10/19 06:13:38;;;;;;;19.23;11.15;;;10.40;99.90;;;;;;5066832;28;20032;-71
2022/10/19 06:16:05;;;;;;;16.92;11.85;;;10.50;99.90;;;;;;5063067;28;20496;-72
2022/10/19 06:18:31;;;;;;;21.45;11.38;;;10.40;99.90;;;;;;5061882;28;20343;-72
2022/10/19 06:21:04;;;;;;;27.17;12.20;;;10.40;99.90;;;;;;5078169;28;20086;-72
2022/10/19 06:23:31;;;;;;;23.55;11.75;;;10.50;99.90;;;;;;5056487;28;20108;-71
2022/10/19 06:25:57;;;;;;;26.90;12.05;;;10.40;99.90;;;;;;5062999;28;20040;-71
2022/10/19 06:28:23;;;;;;;20.05;10.70;;;10.50;99.90;;;;;;5063402;28;20171;-70
2022/10/19 06:30:48;;;;;;;23.73;11.98;;;10.50;99.90;;;;;;5059570;28;20491;-70
2022/10/19 06:33:14;;;;;;;20.05;10.32;;;10.50;99.90;;;;;;5057412;28;20029;-70
2022/10/19 06:35:41;;;;;;;18.70;10.85;;;10.40;99.90;;;;;;5065304;28;20029;-69
2022/10/19 06:38:08;;;;;;;24.58;12.13;;;10.40;99.90;;;;;;5063580;28;20111;-69
2022/10/19 06:40:34;;;;;;;23.48;11.38;;;10.40;99.90;;;;;;5068224;28;20386;-69
2022/10/19 06:43:00;;;;;;;29.40;12.32;;;10.40;99.90;;;;;;5064753;28;20017;-70
2022/10/19 06:45:26;;;;;;;24.85;12.32;;;10.40;99.90;;;;;;5064947;28;20479;-70
2022/10/19 06:47:52;;;;;;;24.88;11.00;;;10.40;99.90;;;;;;5068472;28;20033;-69
2022/10/19 06:50:19;;;;;;;23.17;11.38;;;10.40;99.90;;;;;;5061156;28;20025;-70
2022/10/19 06:52:45;;;;;;;26.25;12.50;;;10.40;99.90;;;;;;5065469;28;20032;-70
2022/10/19 06:55:11;;;;;;;23.40;12.20;;;10.50;99.90;;;;;;5056017;28;20372;-71
2022/10/19 06:57:36;;;;;;;23.83;11.45;;;10.50;99.90;;;;;;5059306;28;20025;-69
2022/10/19 07:00:06;;;;;;;27.48;11.07;;;10.50;99.90;;;;;;5064082;28;20149;-70
2022/10/19 07:02:32;;;;;;;22.13;11.80;;;10.50;99.90;;;;;;5065375;28;20028;-70
2022/10/19 07:04:58;;;;;;;25.20;13.35;;;10.50;99.90;;;;;;5064472;28;20025;-69
2022/10/19 07:07:23;;;;;;;22.13;10.75;;;10.50;99.90;;;;;;5058684;28;20355;-69
2022/10/19 07:09:49;;;;;;;24.05;12.40;;;10.50;99.90;;;;;;5058900;28;20064;-69
2022/10/19 07:12:15;;;;;;;34.67;13.30;;;10.40;99.90;;;;;;5059587;28;20044;-70
2022/10/19 07:14:40;;;;;;;27.75;12.13;;;10.40;99.90;;;;;;5061290;28;20075;-70
2022/10/19 07:17:07;;;;;;;23.85;12.82;;;10.40;99.90;;;;;;5065691;28;20540;-69
2022/10/19 07:19:33;;;;;;;22.27;12.35;;;10.50;99.90;;;;;;5062755;28;20032;-69
2022/10/19 07:21:59;;;;;;;20.92;12.80;;;10.40;99.90;;;;;;5065983;28;20052;-70
2022/10/19 07:24:24;;;;;;;28.35;13.95;;;10.50;99.90;;;;;;5066149;28;20073;-70
2022/10/19 07:26:50;;;;;;;26.98;12.85;;;10.60;99.90;;;;;;5056820;28;20025;-69
2022/10/19 07:29:16;;;;;;;26.10;12.77;;;10.60;99.90;;;;;;5060088;28;20025;-70
2022/10/19 07:31:41;;;;;;;28.95;14.32;;;10.60;99.90;;;;;;5057662;28;20120;-69
2022/10/19 07:34:11;;;;;;;29.73;14.77;;;10.60;99.90;;;;;;5052369;28;20435;-70
2022/10/19 07:36:38;;;;;;;26.85;13.68;;;10.70;99.90;;;;;;5055080;28;20029;-69
2022/10/19 07:39:05;;;;;;;26.67;13.43;;;10.70;99.90;;;;;;5056305;28;20033;-69
2022/10/19 07:41:33;;;;;;;29.52;14.77;;;10.70;99.90;;;;;;5052421;28;20048;-69
2022/10/19 07:44:00;;;;;;;31.35;13.68;;;10.70;99.90;;;;;;5066423;28;20032;-70
2022/10/19 07:46:35;;;;;;;27.63;13.25;;;10.70;99.90;;;;;;5063652;28;20024;-70
2022/10/19 07:49:02;;;;;;;26.75;14.10;;;10.60;99.90;;;;;;5069570;28;20035;-70
2022/10/19 07:51:28;;;;;;;29.52;15.02;;;10.70;99.90;;;;;;5067467;28;20524;-70
2022/10/19 07:53:54;;;;;;;32.00;15.48;;;10.70;99.90;;;;;;5068175;28;20036;-70
2022/10/19 07:56:22;;;;;;;29.75;13.88;;;10.80;99.90;;;;;;5064732;28;20021;-70
2022/10/19 07:58:49;;;;;;;28.50;14.23;;;10.90;99.90;;;;;;5065414;28;20032;-71
2022/10/19 08:01:17;;;;;;;28.60;12.65;;;10.90;99.90;;;;;;5058112;28;20024;-71
2022/10/19 08:03:44;;;;;;;40.13;14.10;;;10.90;99.90;;;;;;5061018;28;20574;-70
2022/10/19 08:06:12;;;;;;;29.15;14.05;;;11.00;99.90;;;;;;5067041;28;20196;-72
2022/10/19 08:08:39;;;;;;;36.33;14.88;;;11.10;99.90;;;;;;5060216;28;20009;-71
2022/10/19 08:11:22;;;;;;;28.98;12.40;;;11.20;99.90;;;;;;5072090;28;20469;-72
2022/10/19 08:13:48;;;;;;;27.45;14.68;;;11.30;99.90;;;;;;5063844;28;20055;-71
2022/10/19 08:16:27;;;;;;;29.85;13.02;;;11.30;99.90;;;;;;5063396;28;20037;-71
2022/10/19 08:18:57;;;;;;;33.67;15.10;;;11.40;99.90;;;;;;5071249;28;20033;-70
2022/10/19 08:21:24;;;;;;;29.98;13.98;;;11.40;99.90;;;;;;5068315;28;20112;-70
2022/10/19 08:23:50;;;;;;;31.25;13.75;;;11.50;99.90;;;;;;5085082;28;20056;-71
2022/10/19 08:26:16;;;;;;;23.10;12.95;;;11.60;99.90;;;;;;5064423;28;20021;-70
2022/10/19 08:28:41;;;;;;;28.10;13.75;;;11.70;99.90;;;;;;5060769;28;20381;-71
2022/10/19 08:31:17;;;;;;;29.52;14.82;;;11.70;99.90;;;;;;5064179;28;20098;-71
2022/10/19 08:33:43;;;;;;;31.48;15.45;;;11.80;99.90;;;;;;5068263;28;20107;-70
2022/10/19 08:36:10;;;;;;;32.05;14.13;;;11.90;99.90;;;;;;5061855;28;20029;-71
2022/10/19 08:38:37;;;;;;;33.05;15.38;;;12.00;99.90;;;;;;5067224;28;20108;-71
2022/10/19 08:41:17;;;;;;;36.15;13.65;;;12.20;99.90;;;;;;5065994;28;20036;-72
2022/10/19 08:43:52;;;;;;;23.02;13.00;;;12.20;99.90;;;;;;5059142;28;20043;-71
2022/10/19 08:46:44;;;;;;;27.42;12.43;;;12.30;99.90;;;;;;5068814;28;20021;-71
2022/10/19 08:49:14;;;;;;;34.17;13.25;;;12.30;99.90;;;;;;5060663;28;20111;-71
2022/10/19 08:51:43;;;;;;;29.95;13.10;;;12.40;99.90;;;;;;5059390;28;20036;-72
2022/10/19 08:54:15;;;;;;;28.73;12.65;;;12.50;99.90;;;;;;5056737;28;20039;-71
2022/10/19 08:56:59;;;;;;;23.10;12.50;;;12.50;99.90;;;;;;5067436;28;20017;-71
2022/10/19 08:59:44;;;;;;;26.13;11.57;;;12.60;99.90;;;;;;5067493;28;20025;-71
2022/10/19 09:02:38;;;;;;;28.80;12.82;;;12.70;99.90;;;;;;5066137;28;20384;-71
2022/10/19 09:05:16;;;;;;;19.60;11.43;;;12.90;99.90;;;;;;5065155;28;20025;-71
2022/10/19 09:07:44;;;;;;;29.92;12.23;;;12.90;99.90;;;;;;5065941;28;20021;-72
2022/10/19 09:10:13;;;;;;;19.10;10.50;;;13.20;99.90;;;;;;5065502;28;20028;-72
2022/10/19 09:12:58;;;;;;;22.17;11.30;;;13.20;99.90;;;;;;5062145;28;20033;-72
2022/10/19 09:15:39;;;;;;;18.73;9.85;;;13.30;99.90;;;;;;5069501;28;20024;-71
2022/10/19 09:18:20;;;;;;;22.30;10.05;;;13.30;99.90;;;;;;5063011;28;20488;-72
2022/10/19 09:20:49;;;;;;;22.50;10.18;;;13.40;99.90;;;;;;5062797;28;20017;-72
2022/10/19 09:23:37;;;;;;;20.60;10.63;;;13.60;99.90;;;;;;5062810;28;20048;-71
2022/10/19 09:26:04;;;;;;;21.50;9.48;;;13.70;99.90;;;;;;5058563;28;20031;-72
2022/10/19 09:29:08;;;;;;;41.88;10.45;;;13.80;99.90;;;;;;5056753;28;20044;-71
2022/10/19 09:31:37;;;;;;;29.13;14.20;;;13.90;99.90;;;;;;5068425;28;20032;-71
2022/10/19 09:34:32;;;;;;;20.92;11.07;;;14.10;99.90;;;;;;5062343;28;20036;-71
2022/10/19 09:36:58;;;;;;;29.38;16.30;;;14.20;99.90;;;;;;5060879;28;20035;-71
2022/10/19 09:39:26;;;;;;;22.42;12.00;;;14.30;99.90;;;;;;5062366;28;20028;-71
2022/10/19 09:42:04;;;;;;;17.42;10.75;;;14.30;99.90;;;;;;5067267;28;20108;-71
2022/10/19 09:44:30;;;;;;;20.65;10.13;;;14.40;99.90;;;;;;5067204;28;20024;-71
2022/10/19 09:47:32;;;;;;;28.58;11.88;;;14.50;99.90;;;;;;5057306;28;20020;-71
2022/10/19 09:50:25;;;;;;;20.60;8.98;;;14.60;99.90;;;;;;5059927;28;20519;-71
2022/10/19 09:52:52;;;;;;;21.48;9.43;;;14.70;99.90;;;;;;5065847;28;20024;-71
2022/10/19 09:55:41;;;;;;;19.15;8.98;;;14.80;99.90;;;;;;5057680;28;20017;-71
2022/10/19 09:58:13;;;;;;;15.50;7.70;;;14.80;99.90;;;;;;5055357;28;20136;-70
2022/10/19 10:00:51;;;;;;;22.70;9.85;;;14.90;99.90;;;;;;5065833;28;20033;-71
2022/10/19 10:03:26;;;;;;;125.45;14.23;;;15.00;99.90;;;;;;5058848;28;20013;-72
2022/10/19 10:05:54;;;;;;;19.90;7.50;;;15.20;99.90;;;;;;5066496;28;20530;-71
2022/10/19 10:08:26;;;;;;;12.52;7.13;;;15.20;99.90;;;;;;5067062;28;20025;-71
2022/10/19 10:11:08;;;;;;;19.75;7.28;;;15.20;99.90;;;;;;5061365;28;20055;-72
2022/10/19 10:13:42;;;;;;;13.70;7.45;;;15.30;99.90;;;;;;5058768;28;20048;-71
2022/10/19 10:16:12;;;;;;;11.93;6.78;;;15.30;99.90;;;;;;5060047;28;20054;-71
2022/10/19 10:18:48;;;;;;;14.48;7.55;;;15.50;99.90;;;;;;5060067;28;20029;-71
2022/10/19 10:21:22;;;;;;;15.70;6.32;;;15.60;99.90;;;;;;5064667;28;20481;-71
2022/10/19 10:24:04;;;;;;;19.77;7.35;;;15.60;99.90;;;;;;5057959;28;20107;-71
2022/10/19 10:26:30;;;;;;;19.42;6.93;;;15.70;99.90;;;;;;5056391;28;20078;-71
2022/10/19 10:28:56;;;;;;;16.00;6.13;;;15.70;99.90;;;;;;5062556;28;20508;-71
2022/10/19 10:31:26;;;;;;;17.52;7.43;;;15.80;99.90;;;;;;5062289;28;20029;-71
2022/10/19 10:34:00;;;;;;;21.20;8.85;;;15.80;99.90;;;;;;5063232;28;20025;-71
2022/10/19 10:36:28;;;;;;;16.75;7.70;;;15.80;99.90;;;;;;5060694;28;20040;-71
2022/10/19 10:39:06;;;;;;;16.05;8.40;;;15.90;99.90;;;;;;5059749;28;20040;-71
2022/10/19 10:41:38;;;;;;;16.10;7.80;;;15.90;99.90;;;;;;5063570;28;20021;-71
2022/10/19 10:44:14;;;;;;;17.60;7.15;;;16.00;99.90;;;;;;5065361;28;20358;-71
2022/10/19 10:46:50;;;;;;;14.77;7.10;;;16.00;99.90;;;;;;5058296;28;20500;-71
2022/10/19 10:49:20;;;;;;;14.23;7.85;;;16.00;99.90;;;;;;5066548;28;20020;-71
2022/10/19 10:51:58;;;;;;;15.38;7.78;;;16.00;99.90;;;;;;5061318;28;20492;-71
2022/10/19 10:54:31;;;;;;;18.15;7.47;;;16.10;99.90;;;;;;5061859;28;20128;-70
2022/10/19 10:57:12;;;;;;;19.00;7.07;;;16.20;99.90;;;;;;5056227;28;20468;-71
2022/10/19 10:59:47;;;;;;;12.52;6.88;;;16.30;99.90;;;;;;5059826;28;20034;-71
2022/10/19 11:02:40;;;;;;;10.07;6.85;;;16.40;99.90;;;;;;5057941;28;20024;-71
2022/10/19 11:05:08;;;;;;;;;;;16.50;99.90;;;;;;5060576;28;20364;-71
2022/10/19 11:07:35;;;;;;;14.13;6.00;;;16.50;99.90;;;;;;5062152;28;19928;-71
2022/10/19 11:10:13;;;;;;;15.80;7.07;;;16.60;99.90;;;;;;5067039;28;20029;-71
2022/10/19 11:12:48;;;;;;;15.57;6.40;;;16.60;99.90;;;;;;5057331;28;20028;-71
2022/10/19 11:15:45;;;;;;;13.85;6.90;;;16.70;99.90;;;;;;5056547;28;20021;-71
2022/10/19 11:18:40;;;;;;;11.88;6.50;;;16.70;99.90;;;;;;5062072;28;20170;-71
2022/10/19 11:21:19;;;;;;;15.43;6.85;;;16.90;99.90;;;;;;5063419;28;20028;-71
2022/10/19 11:24:20;;;;;;;10.65;6.03;;;17.00;99.90;;;;;;5061309;28;20521;-72
2022/10/19 11:27:16;;;;;;;19.08;6.78;;;16.90;99.90;;;;;;5067309;28;20017;-71
2022/10/19 11:30:10;;;;;;;15.82;6.38;;;16.70;99.90;;;;;;5055486;28;20099;-71
2022/10/19 11:32:54;;;;;;;11.90;6.10;;;16.80;99.90;;;;;;5052575;28;20041;-71
2022/10/19 11:35:29;;;;;;;12.50;6.38;;;16.90;99.90;;;;;;5058113;28;20032;-71
2022/10/19 11:38:23;;;;;;;20.58;6.65;;;16.90;99.90;;;;;;5062608;28;20025;-71
2022/10/19 11:41:10;;;;;;;10.85;5.90;;;16.90;99.90;;;;;;5074379;28;20025;-71
2022/10/19 11:43:41;;;;;;;17.52;6.60;;;16.90;99.90;;;;;;5056211;28;20036;-71
2022/10/19 11:46:37;;;;;;;9.07;6.78;;;17.00;99.90;;;;;;5058648;28;20369;-71
2022/10/19 11:49:31;;;;;;;18.42;6.32;;;17.00;99.90;;;;;;5060590;28;20033;-71
2022/10/19 11:52:00;;;;;;;12.48;5.43;;;16.90;99.90;;;;;;5053834;28;20053;-70
2022/10/19 11:54:43;;;;;;;9.23;5.07;;;16.80;99.90;;;;;;5075871;28;20078;-71
2022/10/19 11:57:17;;;;;;;11.50;4.78;;;16.90;99.90;;;;;;5058035;28;20029;-71
2022/10/19 12:00:21;;;;;;;11.68;4.70;;;17.00;99.90;;;;;;5062717;28;20028;-70
2022/10/19 12:03:28;;;;;;;11.05;5.65;;;17.00;99.90;;;;;;5052424;28;20041;-70
2022/10/19 12:06:06;;;;;;;9.18;5.22;;;17.00;99.90;;;;;;5067487;28;20036;-71
2022/10/19 12:09:04;;;;;;;8.15;5.13;;;17.00;99.90;;;;;;5066196;28;20119;-70
2022/10/19 12:11:42;;;;;;;14.90;4.63;;;17.00;99.90;;;;;;5058204;28;20028;-71
2022/10/19 12:14:18;;;;;;;12.05;4.78;;;17.00;99.90;;;;;;5056865;28;20037;-71
2022/10/19 12:16:49;;;;;;;10.75;4.95;;;17.00;99.90;;;;;;5057761;28;20400;-70
2022/10/19 12:19:24;;;;;;;12.63;4.88;;;17.10;99.90;;;;;;5062755;28;20400;-70
2022/10/19 12:21:55;;;;;;;10.88;4.90;;;17.10;99.90;;;;;;5061502;28;20029;-70
2022/10/19 12:24:24;;;;;;;7.05;4.55;;;17.10;99.90;;;;;;5058158;28;20107;-70
2022/10/19 12:26:52;;;;;;;9.50;4.20;;;17.00;99.90;;;;;;5059053;28;20138;-70
2022/10/19 12:29:25;;;;;;;8.75;3.65;;;17.00;99.90;;;;;;5059279;28;20032;-70
2022/10/19 12:31:52;;;;;;;9.40;5.10;;;17.10;99.90;;;;;;5063381;28;20028;-69
2022/10/19 12:34:43;;;;;;;10.32;4.78;;;16.90;99.90;;;;;;5060282;28;20039;-70
2022/10/19 12:37:22;;;;;;;9.07;3.78;;;16.90;99.90;;;;;;5066078;28;20082;-71
2022/10/19 12:39:58;;;;;;;9.20;3.60;;;16.80;99.90;;;;;;5067652;28;20051;-69
2022/10/19 12:42:53;;;;;;;11.40;3.97;;;16.80;99.90;;;;;;5060449;28;20033;-70
2022/10/19 12:45:24;;;;;;;10.27;4.20;;;16.90;99.90;;;;;;5063518;28;20065;-70
2022/10/19 12:48:11;;;;;;;10.25;5.00;;;16.90;99.90;;;;;;5068402;28;20050;-70
2022/10/19 12:50:58;;;;;;;8.65;4.47;;;16.90;99.90;;;;;;5069136;28;20032;-70
2022/10/19 12:53:29;;;;;;;9.35;4.03;;;16.80;99.90;;;;;;5058291;28;20761;-70
2022/10/19 12:56:04;;;;;;;8.20;4.07;;;16.80;99.90;;;;;;5059202;28;20028;-70
2022/10/19 12:58:49;;;;;;;9.98;4.80;;;16.90;99.90;;;;;;5029853;28;20215;-70